Wesleyville, Canada
Current Conditions -  °F | °C
As of 2:48 PM on Friday 24 Oct 2014 (Local Time) from CYQX Reporting Station
Drizzle Drizzle  
Wind Chill: 42°   Ceiling: 800
Heat Index: 48°   Visibility: 8mi
Dew Point: 46°   Wind: 16mph
Humidity: 93%   Direction: 50°NE
Pressure: 29.89"   Gusts: NA
Location:  49.15°N, 53.58°W
Report Text: CYQX 241648Z 05014KT 8SM -DZ FEW002 BKN008 OVC017 09/08 A2989 RMK SF1SF6SC1 SLP127
Loading
Personal Weather Stations






























Interactive Weather Map
Tropical Storm Tracking
New forecast layout! Learn more

10-Day Weather Forecast

Advertisements
Track Severe Weather on mobile